createdAt,value
2023-09-06T00:01:55.709Z,15.35
2023-09-06T00:03:57.702Z,15.34
2023-09-06T00:05:59.757Z,15.35
2023-09-06T00:08:05.137Z,15.27
2023-09-06T00:10:06.948Z,15.26
2023-09-06T00:12:08.694Z,15.31
2023-09-06T00:14:10.294Z,15.29
2023-09-06T00:16:12.210Z,15.26
2023-09-06T00:18:13.710Z,15.30
2023-09-06T00:20:21.577Z,15.28
2023-09-06T00:22:23.250Z,15.27
2023-09-06T00:24:24.859Z,15.27
2023-09-06T00:26:27.868Z,15.17
2023-09-06T00:28:29.985Z,15.21
2023-09-06T00:30:32.148Z,15.15
2023-09-06T00:32:35.022Z,15.16
2023-09-06T00:34:36.599Z,15.12
2023-09-06T00:36:38.268Z,15.10
2023-09-06T00:38:40.366Z,15.09
2023-09-06T00:40:43.094Z,15.00
2023-09-06T00:42:49.185Z,14.83
2023-09-06T00:44:51.353Z,14.80
2023-09-06T00:46:53.507Z,14.81
2023-09-06T00:48:56.308Z,14.87
2023-09-06T00:50:58.341Z,14.79
2023-09-06T00:53:00.158Z,14.82
2023-09-06T00:55:02.376Z,14.78
2023-09-06T00:57:04.021Z,14.60
2023-09-06T00:59:05.625Z,14.64
2023-09-06T01:01:07.364Z,14.62
2023-09-06T01:03:09.438Z,14.54
2023-09-06T01:05:11.631Z,14.52
2023-09-06T01:07:14.121Z,14.42
2023-09-06T01:09:15.823Z,14.44
2023-09-06T01:11:22.611Z,14.35
2023-09-06T01:13:24.596Z,14.38
2023-09-06T01:15:27.351Z,14.36
2023-09-06T01:17:29.558Z,14.27
2023-09-06T01:19:32.419Z,14.22
2023-09-06T01:21:39.552Z,14.26
2023-09-06T01:23:44.016Z,14.27
2023-09-06T01:25:46.352Z,14.24
2023-09-06T01:27:48.374Z,14.20
2023-09-06T01:29:50.162Z,14.20
2023-09-06T01:31:51.866Z,14.23
2023-09-06T01:33:53.750Z,14.24
2023-09-06T01:35:56.138Z,14.19
2023-09-06T01:37:58.042Z,14.16
2023-09-06T01:39:59.683Z,14.12
2023-09-06T01:42:01.304Z,14.07
2023-09-06T01:44:03.076Z,14.04
2023-09-06T01:46:06.427Z,13.97
2023-09-06T01:48:08.256Z,13.98
2023-09-06T01:50:10.053Z,13.91
2023-09-06T01:52:11.842Z,13.92
2023-09-06T01:54:14.246Z,13.88
2023-09-06T01:56:15.854Z,13.86
2023-09-06T01:58:18.793Z,13.84
2023-09-06T02:00:23.462Z,13.67
2023-09-06T02:02:24.982Z,13.75
2023-09-06T02:04:26.605Z,13.73
2023-09-06T02:06:28.168Z,13.63
2023-09-06T02:08:30.563Z,13.59
2023-09-06T02:10:32.523Z,13.45
2023-09-06T02:12:34.551Z,13.50
2023-09-06T02:14:36.102Z,13.42
2023-09-06T02:16:38.765Z,13.49
2023-09-06T02:18:40.668Z,13.58
2023-09-06T02:20:44.610Z,13.62
2023-09-06T02:22:52.766Z,13.46
2023-09-06T02:24:54.709Z,13.40
2023-09-06T02:26:56.336Z,13.36
2023-09-06T02:28:58.088Z,13.35
2023-09-06T02:31:00.684Z,13.35
2023-09-06T02:33:02.252Z,13.32
2023-09-06T02:35:04.257Z,13.39
2023-09-06T02:37:06.669Z,13.35
2023-09-06T02:39:08.234Z,13.33
2023-09-06T02:41:09.741Z,13.35
2023-09-06T02:43:15.963Z,13.39
2023-09-06T02:45:18.508Z,13.28
2023-09-06T02:47:26.457Z,13.26
2023-09-06T02:49:28.487Z,13.27
2023-09-06T02:51:31.284Z,13.29
2023-09-06T02:53:34.700Z,13.31
2023-09-06T02:55:36.800Z,13.28
2023-09-06T02:57:39.040Z,13.23
2023-09-06T02:59:41.076Z,13.23
2023-09-06T03:01:46.499Z,13.26
2023-09-06T03:03:52.812Z,13.29
2023-09-06T03:05:59.694Z,13.32
2023-09-06T03:08:03.621Z,13.37
2023-09-06T03:10:09.269Z,13.31
2023-09-06T03:12:13.886Z,13.23
2023-09-06T03:14:21.771Z,13.27
2023-09-06T03:16:23.740Z,13.31
2023-09-06T03:18:25.481Z,13.25
2023-09-06T03:20:33.993Z,13.33
2023-09-06T03:22:38.840Z,13.25
2023-09-06T03:24:41.784Z,13.20
2023-09-06T03:26:45.230Z,13.23
2023-09-06T03:28:48.626Z,13.24
2023-09-06T03:30:53.283Z,13.26
2023-09-06T03:32:56.316Z,13.27
2023-09-06T03:34:58.141Z,13.31
2023-09-06T03:36:59.688Z,13.27
2023-09-06T03:39:02.032Z,13.17
2023-09-06T03:41:04.244Z,13.09
2023-09-06T03:43:16.749Z,13.14
2023-09-06T03:45:22.461Z,12.99
2023-09-06T03:47:24.252Z,13.05
2023-09-06T03:49:29.777Z,13.04
2023-09-06T03:51:33.925Z,13.02
2023-09-06T03:53:39.180Z,12.96
2023-09-06T03:55:43.582Z,12.92
2023-09-06T03:57:46.090Z,12.90
2023-09-06T03:59:48.601Z,12.86
2023-09-06T04:01:50.323Z,12.84
2023-09-06T04:03:52.353Z,12.90
2023-09-06T04:05:56.029Z,12.77
2023-09-06T04:08:00.281Z,12.80
2023-09-06T04:10:03.957Z,12.76
2023-09-06T04:12:07.168Z,12.74
2023-09-06T04:14:10.361Z,12.60
2023-09-06T04:16:12.172Z,12.67
2023-09-06T04:18:15.948Z,12.57
2023-09-06T04:20:21.632Z,12.64
2023-09-06T04:22:23.257Z,12.58
2023-09-06T04:24:24.835Z,12.60
2023-09-06T04:26:27.677Z,12.51
2023-09-06T04:28:31.274Z,12.50
2023-09-06T04:30:36.879Z,12.50
2023-09-06T04:32:38.751Z,12.47
2023-09-06T04:34:41.143Z,12.48
2023-09-06T04:36:42.825Z,12.53
2023-09-06T04:38:45.135Z,12.60
2023-09-06T04:40:48.188Z,12.44
2023-09-06T04:42:52.555Z,12.44
2023-09-06T04:44:54.357Z,12.38
2023-09-06T04:46:56.160Z,12.36
2023-09-06T04:48:59.033Z,12.32
2023-09-06T04:51:00.936Z,12.27
2023-09-06T04:53:03.508Z,12.32
2023-09-06T04:55:11.796Z,12.31
2023-09-06T04:57:13.728Z,12.31
2023-09-06T04:59:15.780Z,12.30
2023-09-06T05:01:18.176Z,12.27
2023-09-06T05:03:24.627Z,12.19
2023-09-06T05:05:31.391Z,12.16
2023-09-06T05:07:34.600Z,12.09
2023-09-06T05:09:37.882Z,12.10
2023-09-06T05:11:39.906Z,12.13
2023-09-06T05:13:41.731Z,12.21
2023-09-06T05:15:43.387Z,12.25
2023-09-06T05:17:46.254Z,12.41
2023-09-06T05:19:55.477Z,12.43
2023-09-06T05:21:57.111Z,12.76
2023-09-06T05:23:58.794Z,12.81
2023-09-06T05:26:00.401Z,12.95
2023-09-06T05:28:10.347Z,12.91
2023-09-06T05:30:13.839Z,12.86
2023-09-06T05:32:20.051Z,12.84
2023-09-06T05:34:23.156Z,12.88
2023-09-06T05:36:24.816Z,12.91
2023-09-06T05:38:26.726Z,12.99
2023-09-06T05:40:30.849Z,13.12
2023-09-06T05:42:32.965Z,13.25
2023-09-06T05:44:34.502Z,13.37
2023-09-06T05:46:37.176Z,13.52
2023-09-06T05:48:43.973Z,13.65
2023-09-06T05:50:46.502Z,13.75
2023-09-06T05:52:49.257Z,13.82
2023-09-06T05:54:52.353Z,13.93
2023-09-06T05:56:55.106Z,14.06
2023-09-06T05:58:57.131Z,14.17
2023-09-06T06:00:58.665Z,14.27
2023-09-06T06:03:03.221Z,14.36
2023-09-06T06:05:05.116Z,14.44
2023-09-06T06:07:07.551Z,14.57
2023-09-06T06:09:12.575Z,14.72
2023-09-06T06:11:14.518Z,14.80
2023-09-06T06:13:16.104Z,14.89
2023-09-06T06:15:17.758Z,15.04
2023-09-06T06:17:19.546Z,15.14
2023-09-06T06:19:21.231Z,15.31
2023-09-06T06:21:24.243Z,15.48
2023-09-06T06:23:26.171Z,15.62
2023-09-06T06:25:28.306Z,15.74
2023-09-06T06:27:30.120Z,15.96
2023-09-06T06:29:31.961Z,16.15
2023-09-06T06:31:33.661Z,16.35
2023-09-06T06:33:36.337Z,16.55
2023-09-06T06:35:39.334Z,16.76
2023-09-06T06:37:40.914Z,16.88
2023-09-06T06:39:43.284Z,17.09
2023-09-06T06:41:45.360Z,17.16
2023-09-06T06:43:50.547Z,17.32
2023-09-06T06:45:54.383Z,17.43
2023-09-06T06:47:56.161Z,17.63
2023-09-06T06:50:04.066Z,17.89
2023-09-06T06:52:07.069Z,18.08
2023-09-06T06:54:10.275Z,18.26
2023-09-06T06:56:11.965Z,18.43
2023-09-06T06:58:15.244Z,18.64
2023-09-06T07:00:18.857Z,18.76
2023-09-06T07:02:20.628Z,18.95
2023-09-06T07:04:22.132Z,19.08
2023-09-06T07:06:24.243Z,19.23
2023-09-06T07:08:27.704Z,19.41
2023-09-06T07:10:31.020Z,19.58
2023-09-06T07:12:32.608Z,19.75
2023-09-06T07:14:34.270Z,19.85
2023-09-06T07:16:37.029Z,20.01
2023-09-06T07:18:38.629Z,20.17
2023-09-06T07:20:40.232Z,20.34
2023-09-06T07:22:42.003Z,20.49
2023-09-06T07:24:44.027Z,20.59
2023-09-06T07:26:45.539Z,20.75
2023-09-06T07:28:47.886Z,20.90
2023-09-06T07:30:50.110Z,21.04
2023-09-06T07:32:51.808Z,21.25
2023-09-06T07:34:53.488Z,21.37
2023-09-06T07:36:55.025Z,21.53
2023-09-06T07:38:58.347Z,21.66
2023-09-06T07:41:06.389Z,21.76
2023-09-06T07:43:08.489Z,21.89
2023-09-06T07:45:11.359Z,21.94
2023-09-06T07:47:13.337Z,22.11
2023-09-06T07:49:18.266Z,22.27
2023-09-06T07:51:20.409Z,22.40
2023-09-06T07:53:22.314Z,22.56
2023-09-06T07:55:23.981Z,22.67
2023-09-06T07:57:25.486Z,22.85
2023-09-06T07:59:27.583Z,22.89
2023-09-06T08:01:29.610Z,22.83
2023-09-06T08:03:31.564Z,22.97
2023-09-06T08:05:34.078Z,23.11
2023-09-06T08:07:36.545Z,23.17
2023-09-06T08:09:39.158Z,23.20
2023-09-06T08:11:40.796Z,23.23
2023-09-06T08:13:42.956Z,23.34
2023-09-06T08:15:45.842Z,23.41
2023-09-06T08:17:48.546Z,23.53
2023-09-06T08:19:50.253Z,23.66
2023-09-06T08:21:51.780Z,23.76
2023-09-06T08:23:54.007Z,23.90
2023-09-06T08:25:57.112Z,23.97
2023-09-06T08:27:58.857Z,23.97
2023-09-06T08:30:00.585Z,24.04
2023-09-06T08:32:02.426Z,24.08
2023-09-06T08:34:04.409Z,24.13
2023-09-06T08:36:08.600Z,24.22
2023-09-06T08:38:13.452Z,24.36
2023-09-06T08:40:17.058Z,24.45
2023-09-06T08:42:22.130Z,24.21
2023-09-06T08:44:25.378Z,24.25
2023-09-06T08:46:34.467Z,24.53
2023-09-06T08:48:38.341Z,24.56
2023-09-06T08:50:41.669Z,24.69
2023-09-06T08:52:45.399Z,24.88
2023-09-06T08:54:47.510Z,24.95
2023-09-06T08:56:49.886Z,25.15
2023-09-06T08:58:52.063Z,25.29
2023-09-06T09:00:54.533Z,25.40
2023-09-06T09:02:56.355Z,25.56
2023-09-06T09:05:09.552Z,25.63
2023-09-06T09:07:19.695Z,25.82
2023-09-06T09:09:21.376Z,25.96
2023-09-06T09:11:23.178Z,25.59
2023-09-06T09:13:24.753Z,25.58
2023-09-06T09:15:27.205Z,25.49
2023-09-06T09:17:29.572Z,25.60
2023-09-06T09:19:31.139Z,25.79
2023-09-06T09:21:32.878Z,26.06
2023-09-06T09:23:43.493Z,26.26
2023-09-06T09:25:51.661Z,26.51
2023-09-06T09:27:58.949Z,26.15
2023-09-06T09:30:04.500Z,26.18
2023-09-06T09:32:07.025Z,26.33
2023-09-06T09:34:08.629Z,26.39
2023-09-06T09:36:10.640Z,25.95
2023-09-06T09:38:12.669Z,25.78
2023-09-06T09:40:18.616Z,25.63
2023-09-06T09:42:20.670Z,25.87
2023-09-06T09:44:22.292Z,26.08
2023-09-06T09:46:28.746Z,26.18
2023-09-06T09:48:31.496Z,26.50
2023-09-06T09:50:34.804Z,26.72
2023-09-06T09:52:38.692Z,26.99
2023-09-06T09:54:43.364Z,27.21
2023-09-06T09:56:59.024Z,27.33
2023-09-06T09:59:04.116Z,27.48
2023-09-06T10:01:06.828Z,27.63
2023-09-06T10:03:10.384Z,27.78
2023-09-06T10:05:17.884Z,27.73
2023-09-06T10:07:20.879Z,27.85
2023-09-06T10:09:23.378Z,28.06
2023-09-06T10:11:26.866Z,27.99
2023-09-06T10:13:29.655Z,28.10
2023-09-06T10:15:31.454Z,28.29
2023-09-06T10:17:33.186Z,28.47
2023-09-06T10:19:48.489Z,28.57
2023-09-06T10:21:55.889Z,28.83
2023-09-06T10:23:57.391Z,29.04
2023-09-06T10:26:01.564Z,29.16
2023-09-06T10:28:04.558Z,29.36
2023-09-06T10:30:07.630Z,29.24
2023-09-06T10:32:09.490Z,29.04
2023-09-06T10:34:12.538Z,28.89
2023-09-06T10:36:15.200Z,28.82
2023-09-06T10:38:17.073Z,28.66
2023-09-06T10:40:20.028Z,28.64
2023-09-06T10:42:22.193Z,28.84
2023-09-06T10:44:24.646Z,28.44
2023-09-06T10:46:28.264Z,28.47
2023-09-06T10:48:31.171Z,28.46
2023-09-06T10:50:33.175Z,28.35
2023-09-06T10:52:45.301Z,28.57
2023-09-06T10:54:47.873Z,28.77
2023-09-06T10:57:02.763Z,28.67
2023-09-06T10:59:05.867Z,28.73
2023-09-06T11:01:17.364Z,29.20
2023-09-06T11:03:20.416Z,29.18
2023-09-06T11:05:36.666Z,29.12
2023-09-06T11:07:50.581Z,29.33
2023-09-06T11:09:54.290Z,28.38
2023-09-06T11:11:56.012Z,28.79
2023-09-06T11:14:01.944Z,29.23
2023-09-06T11:16:04.976Z,29.60
2023-09-06T11:18:07.692Z,29.71
2023-09-06T11:20:14.234Z,29.85
2023-09-06T11:22:17.544Z,30.17
2023-09-06T11:24:32.709Z,30.33
2023-09-06T11:26:38.201Z,30.34
2023-09-06T11:28:43.302Z,30.37
2023-09-06T11:30:50.604Z,30.69
2023-09-06T11:32:53.437Z,30.98
2023-09-06T11:34:55.247Z,31.07
2023-09-06T11:36:58.007Z,31.27
2023-09-06T11:39:16.808Z,31.58
2023-09-06T11:41:18.609Z,31.67
2023-09-06T11:43:24.172Z,31.87
2023-09-06T11:45:27.959Z,32.02
2023-09-06T11:47:31.895Z,32.03
2023-09-06T11:49:40.608Z,32.24
2023-09-06T11:51:44.610Z,32.37
2023-09-06T11:53:55.365Z,32.28
2023-09-06T11:56:00.682Z,32.03
2023-09-06T11:58:02.401Z,31.61
2023-09-06T12:00:21.244Z,32.01
2023-09-06T12:02:27.198Z,32.18
2023-09-06T12:04:30.979Z,31.99
2023-09-06T12:06:33.684Z,32.12
2023-09-06T12:08:35.808Z,32.20
2023-09-06T12:10:39.856Z,32.12
2023-09-06T12:12:43.339Z,31.85
2023-09-06T12:14:45.319Z,32.00
2023-09-06T12:16:46.888Z,32.03
2023-09-06T12:18:48.533Z,32.16
2023-09-06T12:20:50.807Z,32.45
2023-09-06T12:22:53.776Z,32.58
2023-09-06T12:24:56.353Z,32.47
2023-09-06T12:26:59.288Z,32.80
2023-09-06T12:29:02.461Z,32.94
2023-09-06T12:31:16.477Z,33.23
2023-09-06T12:33:19.361Z,32.61
2023-09-06T12:35:21.509Z,32.33
2023-09-06T12:37:23.358Z,31.71
2023-09-06T12:39:24.989Z,31.29
2023-09-06T12:41:26.508Z,31.69
2023-09-06T12:43:28.102Z,31.59
2023-09-06T12:45:31.829Z,30.91
2023-09-06T12:47:33.453Z,31.12
2023-09-06T12:49:35.114Z,31.67
2023-09-06T12:51:38.500Z,32.10
2023-09-06T12:53:40.942Z,31.83
2023-09-06T12:55:42.631Z,31.77
2023-09-06T12:57:45.238Z,32.10
2023-09-06T12:59:46.780Z,32.43
2023-09-06T13:01:50.670Z,32.92
2023-09-06T13:03:53.020Z,32.24
2023-09-06T13:05:56.682Z,32.10
2023-09-06T13:08:00.631Z,32.57
2023-09-06T13:10:02.832Z,32.52
2023-09-06T13:12:04.666Z,33.11
2023-09-06T13:14:06.957Z,33.55
2023-09-06T13:16:08.933Z,33.86
2023-09-06T13:18:10.740Z,34.29
2023-09-06T13:20:12.477Z,34.36
2023-09-06T13:22:14.276Z,34.69
2023-09-06T13:24:17.385Z,34.99
2023-09-06T13:26:19.041Z,35.22
2023-09-06T13:28:21.071Z,35.37
2023-09-06T13:30:22.734Z,35.37
2023-09-06T13:32:26.468Z,35.47
2023-09-06T13:34:28.274Z,35.53
2023-09-06T13:36:31.803Z,35.37
2023-09-06T13:38:33.590Z,34.93
2023-09-06T13:40:35.750Z,35.19
2023-09-06T13:42:38.781Z,35.39
2023-09-06T13:44:40.420Z,35.90
2023-09-06T13:46:42.478Z,35.57
2023-09-06T13:48:44.285Z,35.66
2023-09-06T13:50:46.388Z,35.55
2023-09-06T13:52:47.979Z,35.15
2023-09-06T13:54:49.533Z,35.63
2023-09-06T13:56:51.200Z,36.08
2023-09-06T13:58:54.041Z,34.81
2023-09-06T14:00:56.903Z,33.90
2023-09-06T14:02:58.738Z,32.61
2023-09-06T14:05:03.938Z,31.36
2023-09-06T14:07:05.569Z,31.35
2023-09-06T14:09:09.305Z,32.30
2023-09-06T14:11:11.054Z,32.55
2023-09-06T14:13:12.686Z,33.34
2023-09-06T14:15:14.362Z,33.07
2023-09-06T14:17:16.147Z,32.94
2023-09-06T14:19:18.964Z,33.07
2023-09-06T14:21:21.846Z,34.02
2023-09-06T14:23:24.938Z,34.27
2023-09-06T14:25:26.529Z,34.83
2023-09-06T14:27:27.973Z,35.39
2023-09-06T14:29:29.818Z,35.82
2023-09-06T14:31:31.502Z,36.18
2023-09-06T14:33:33.410Z,35.33
2023-09-06T14:35:46.594Z,35.30
2023-09-06T14:37:48.136Z,34.51
2023-09-06T14:39:49.724Z,33.36
2023-09-06T14:41:51.554Z,33.16
2023-09-06T14:43:55.134Z,34.22
2023-09-06T14:46:04.407Z,35.04
2023-09-06T14:48:07.387Z,35.84
2023-09-06T14:50:09.210Z,36.28
2023-09-06T14:52:11.253Z,36.52
2023-09-06T14:54:12.973Z,35.67
2023-09-06T14:56:16.148Z,34.90
2023-09-06T14:58:17.855Z,34.32
2023-09-06T15:00:20.291Z,33.84
2023-09-06T15:02:23.144Z,34.25
2023-09-06T15:04:24.972Z,34.84
2023-09-06T15:06:31.577Z,35.09
2023-09-06T15:08:42.274Z,35.51
2023-09-06T15:10:45.137Z,36.25
2023-09-06T15:12:46.952Z,36.22
2023-09-06T15:14:48.581Z,36.81
2023-09-06T15:16:50.476Z,37.49
2023-09-06T15:18:52.286Z,37.96
2023-09-06T15:20:54.949Z,38.29
2023-09-06T15:22:56.536Z,38.62
2023-09-06T15:24:58.274Z,38.83
2023-09-06T15:27:00.328Z,39.04
2023-09-06T15:29:01.924Z,39.39
2023-09-06T15:31:03.553Z,39.64
2023-09-06T15:33:05.303Z,39.93
2023-09-06T15:35:08.748Z,40.38
2023-09-06T15:37:10.809Z,40.42
2023-09-06T15:39:12.519Z,39.94
2023-09-06T15:41:18.348Z,39.69
2023-09-06T15:43:20.421Z,39.88
2023-09-06T15:45:22.004Z,39.94
2023-09-06T15:47:23.618Z,39.76
2023-09-06T15:49:25.809Z,39.72
2023-09-06T15:51:27.574Z,39.87
2023-09-06T15:53:29.280Z,38.96
2023-09-06T15:55:33.472Z,38.43
2023-09-06T15:57:35.107Z,37.73
2023-09-06T15:59:36.713Z,37.25
2023-09-06T16:01:38.948Z,36.59
2023-09-06T16:03:40.803Z,35.75
2023-09-06T16:05:42.479Z,35.28
2023-09-06T16:07:44.119Z,34.43
2023-09-06T16:09:45.589Z,33.72
2023-09-06T16:11:55.263Z,33.38
2023-09-06T16:13:57.520Z,33.22
2023-09-06T16:15:59.047Z,33.08
2023-09-06T16:18:00.686Z,32.33
2023-09-06T16:20:02.652Z,31.21
2023-09-06T16:22:05.591Z,31.12
2023-09-06T16:24:07.563Z,31.12
2023-09-06T16:26:10.663Z,31.07
2023-09-06T16:28:12.224Z,30.96
2023-09-06T16:30:14.688Z,30.91
2023-09-06T16:32:16.752Z,30.88
2023-09-06T16:34:18.572Z,30.51
2023-09-06T16:36:20.146Z,30.42
2023-09-06T16:38:21.739Z,30.41
2023-09-06T16:40:24.745Z,30.30
2023-09-06T16:42:26.381Z,30.23
2023-09-06T16:44:28.845Z,30.19
2023-09-06T16:46:30.554Z,30.20
2023-09-06T16:48:33.429Z,30.00
2023-09-06T16:50:35.676Z,29.95
2023-09-06T16:52:38.776Z,29.89
2023-09-06T16:54:40.802Z,29.78
2023-09-06T16:56:42.364Z,29.73
2023-09-06T16:58:44.069Z,29.50
2023-09-06T17:00:45.636Z,29.28
2023-09-06T17:02:48.022Z,29.20
2023-09-06T17:04:49.582Z,29.04
2023-09-06T17:06:51.097Z,28.90
2023-09-06T17:08:52.666Z,28.67
2023-09-06T17:10:54.244Z,28.56
2023-09-06T17:12:55.801Z,28.32
2023-09-06T17:14:57.391Z,28.16
2023-09-06T17:16:59.192Z,28.02
2023-09-06T17:19:17.409Z,27.92
2023-09-06T17:21:19.101Z,27.77
2023-09-06T17:23:20.719Z,27.47
2023-09-06T17:25:22.440Z,26.91
2023-09-06T17:27:24.364Z,26.08
2023-09-06T17:29:25.927Z,25.41
2023-09-06T17:31:27.950Z,25.06
2023-09-06T17:33:30.389Z,24.69
2023-09-06T17:35:33.971Z,24.32
2023-09-06T17:37:38.262Z,24.06
2023-09-06T17:39:41.801Z,24.13
2023-09-06T17:41:43.699Z,24.30
2023-09-06T17:43:45.205Z,24.32
2023-09-06T17:45:47.909Z,24.43
2023-09-06T17:47:49.704Z,24.40
2023-09-06T17:49:51.934Z,24.22
2023-09-06T17:51:54.264Z,24.12
2023-09-06T17:53:55.941Z,23.94
2023-09-06T17:56:08.774Z,23.80
2023-09-06T17:58:10.822Z,23.59
2023-09-06T18:00:16.894Z,23.52
2023-09-06T18:02:20.565Z,23.38
2023-09-06T18:04:23.811Z,23.26
2023-09-06T18:06:26.591Z,23.15
2023-09-06T18:08:29.897Z,23.06
2023-09-06T18:10:33.594Z,22.87
2023-09-06T18:12:35.466Z,22.84
2023-09-06T18:14:38.100Z,22.75
2023-09-06T18:16:43.241Z,22.63
2023-09-06T18:18:45.665Z,22.55
2023-09-06T18:20:47.316Z,22.42
2023-09-06T18:22:49.336Z,22.39
2023-09-06T18:24:51.660Z,22.32
2023-09-06T18:27:05.952Z,22.30
2023-09-06T18:29:11.236Z,22.26
2023-09-06T18:31:15.639Z,22.27
2023-09-06T18:33:20.627Z,22.08
2023-09-06T18:35:22.540Z,22.02
2023-09-06T18:37:24.114Z,21.99
2023-09-06T18:39:25.736Z,21.90
2023-09-06T18:41:27.579Z,21.82
2023-09-06T18:43:29.811Z,21.75
2023-09-06T18:45:31.505Z,21.64
2023-09-06T18:47:33.338Z,21.69
2023-09-06T18:49:38.079Z,21.60
2023-09-06T18:51:39.690Z,21.51
2023-09-06T18:53:41.398Z,21.46
2023-09-06T18:55:45.953Z,21.42
2023-09-06T18:57:59.682Z,21.45
2023-09-06T19:00:11.008Z,21.46
2023-09-06T19:02:12.780Z,21.43
2023-09-06T19:04:14.750Z,21.39
2023-09-06T19:06:16.484Z,21.35
2023-09-06T19:08:18.555Z,21.32
2023-09-06T19:10:20.090Z,21.18
2023-09-06T19:12:21.812Z,21.18
2023-09-06T19:14:23.458Z,21.00
2023-09-06T19:16:26.035Z,20.98
2023-09-06T19:18:27.842Z,20.99
2023-09-06T19:20:29.798Z,20.97
2023-09-06T19:22:31.754Z,20.91
2023-09-06T19:24:34.391Z,20.82
2023-09-06T19:26:36.102Z,20.80
2023-09-06T19:28:37.707Z,20.71
2023-09-06T19:30:39.643Z,20.51
2023-09-06T19:32:41.329Z,20.35
2023-09-06T19:34:48.160Z,20.09
2023-09-06T19:36:49.724Z,19.97
2023-09-06T19:38:53.061Z,19.72
2023-09-06T19:40:55.986Z,19.54
2023-09-06T19:42:57.604Z,19.44
2023-09-06T19:45:02.577Z,19.23
2023-09-06T19:47:05.641Z,19.19
2023-09-06T19:49:07.649Z,19.13
2023-09-06T19:51:09.466Z,19.10
2023-09-06T19:53:11.122Z,18.99
2023-09-06T19:55:12.961Z,18.90
2023-09-06T19:57:16.676Z,18.87
2023-09-06T19:59:19.237Z,18.80
2023-09-06T20:01:21.890Z,18.70
2023-09-06T20:03:24.049Z,18.66
2023-09-06T20:05:25.917Z,18.56
2023-09-06T20:07:30.454Z,18.41
2023-09-06T20:09:32.616Z,18.30
2023-09-06T20:11:34.559Z,18.31
2023-09-06T20:13:36.265Z,18.22
2023-09-06T20:15:37.852Z,18.18
2023-09-06T20:17:39.941Z,18.19
2023-09-06T20:19:41.551Z,18.07
2023-09-06T20:21:43.053Z,18.01
2023-09-06T20:23:45.045Z,17.93
2023-09-06T20:25:46.664Z,17.79
2023-09-06T20:27:48.256Z,17.78
2023-09-06T20:29:50.267Z,17.73
2023-09-06T20:31:51.913Z,17.69
2023-09-06T20:33:53.544Z,17.65
2023-09-06T20:35:58.469Z,17.71
2023-09-06T20:38:00.255Z,17.60
2023-09-06T20:40:01.857Z,17.54
2023-09-06T20:42:06.229Z,17.45
2023-09-06T20:44:08.074Z,17.47
2023-09-06T20:46:10.199Z,17.46
2023-09-06T20:48:12.764Z,17.48
2023-09-06T20:50:19.329Z,17.51
2023-09-06T20:52:20.874Z,17.42
2023-09-06T20:54:22.615Z,17.34
2023-09-06T20:56:24.236Z,17.32
2023-09-06T20:58:26.367Z,17.23
2023-09-06T21:00:28.075Z,17.24
2023-09-06T21:02:30.217Z,17.18
2023-09-06T21:04:32.095Z,17.20
2023-09-06T21:06:34.056Z,17.18
2023-09-06T21:08:35.725Z,17.14
2023-09-06T21:10:37.333Z,17.02
2023-09-06T21:12:38.838Z,16.97
2023-09-06T21:14:40.504Z,16.92
2023-09-06T21:16:42.012Z,16.95
2023-09-06T21:18:43.683Z,16.96
2023-09-06T21:20:45.487Z,16.92
2023-09-06T21:22:47.124Z,16.92
2023-09-06T21:24:48.695Z,16.89
2023-09-06T21:26:50.798Z,16.78
2023-09-06T21:28:52.564Z,16.75
2023-09-06T21:30:54.087Z,16.87
2023-09-06T21:32:56.798Z,16.90
2023-09-06T21:34:58.689Z,16.89
2023-09-06T21:37:00.292Z,16.83
2023-09-06T21:39:01.906Z,16.88
2023-09-06T21:41:03.892Z,16.90
2023-09-06T21:43:17.056Z,16.95
2023-09-06T21:45:20.337Z,16.99
2023-09-06T21:47:22.060Z,17.03
2023-09-06T21:49:23.726Z,17.02
2023-09-06T21:51:25.229Z,16.97
2023-09-06T21:53:26.813Z,16.99
2023-09-06T21:55:28.523Z,16.98
2023-09-06T21:57:30.223Z,16.97
2023-09-06T21:59:31.777Z,16.96
2023-09-06T22:01:36.564Z,16.98
2023-09-06T22:03:56.934Z,16.95
2023-09-06T22:06:17.402Z,16.88
2023-09-06T22:08:37.468Z,16.80
2023-09-06T22:10:57.658Z,16.74
2023-09-06T22:13:18.286Z,16.84
2023-09-06T22:15:20.302Z,16.79
2023-09-06T22:17:21.981Z,16.78
2023-09-06T22:19:23.631Z,16.77
2023-09-06T22:21:25.230Z,16.81
2023-09-06T22:23:26.758Z,16.79
2023-09-06T22:25:28.707Z,16.77
2023-09-06T22:27:30.348Z,16.75
2023-09-06T22:29:32.544Z,16.68
2023-09-06T22:31:35.917Z,16.75
2023-09-06T22:33:37.758Z,16.74
2023-09-06T22:35:39.364Z,16.70
2023-09-06T22:37:42.833Z,16.66
2023-09-06T22:39:44.387Z,16.65
2023-09-06T22:41:46.345Z,16.63
2023-09-06T22:43:48.007Z,16.62
2023-09-06T22:45:51.196Z,16.62
2023-09-06T22:47:52.889Z,16.60
2023-09-06T22:49:55.488Z,16.59
2023-09-06T22:51:57.348Z,16.56
2023-09-06T22:53:58.954Z,16.52
2023-09-06T22:56:00.614Z,16.55
2023-09-06T22:58:03.475Z,16.54
2023-09-06T23:00:08.512Z,16.62
2023-09-06T23:02:10.076Z,16.55
2023-09-06T23:04:12.218Z,16.55
2023-09-06T23:06:17.294Z,16.52
2023-09-06T23:08:19.723Z,16.52
2023-09-06T23:10:24.319Z,16.45
2023-09-06T23:12:28.250Z,16.43
2023-09-06T23:14:29.994Z,16.37
2023-09-06T23:16:32.194Z,16.40
2023-09-06T23:18:36.521Z,16.34
2023-09-06T23:20:43.148Z,16.23
2023-09-06T23:22:45.407Z,16.24
2023-09-06T23:24:49.401Z,16.23
2023-09-06T23:26:59.518Z,16.19
2023-09-06T23:29:07.129Z,16.11
2023-09-06T23:31:11.650Z,16.09
2023-09-06T23:33:21.332Z,16.06
2023-09-06T23:35:23.487Z,16.08
2023-09-06T23:37:26.546Z,16.08
2023-09-06T23:39:29.089Z,15.98
2023-09-06T23:41:31.276Z,15.93
2023-09-06T23:43:33.024Z,15.90
2023-09-06T23:45:47.026Z,15.82
2023-09-06T23:47:56.225Z,15.76
2023-09-06T23:49:57.776Z,15.67
2023-09-06T23:51:59.714Z,15.66
2023-09-06T23:54:01.495Z,15.61
2023-09-06T23:56:04.739Z,15.58
2023-09-06T23:58:06.427Z,15.47
